Time;durP1;ratioP1;P1;durP2;ratioP2;P2;SDS_P1;SDS_P2;PMS_P1;PMS_P2;Temp;Humidity;BMP_temperature;BMP_pressure;BME280_temperature;BME280_humidity;BME280_pressure;Samples;Min_cycle;Max_cycle;Signal;HPM_P1;HPM_P2
2022/03/27 00:01:21;;;;;;;0.00;0.00;;;;;;;;;;6151320;23;20017;-59
2022/03/27 00:03:46;;;;;;;0.00;0.00;;;;;;;;;;6151891;23;20591;-61
2022/03/27 00:06:11;;;;;;;0.35;0.35;;;;;;;;;;6151915;23;20052;-60
2022/03/27 00:08:37;;;;;;;0.00;0.00;;;;;;;;;;6151163;23;20046;-61
2022/03/27 00:13:46;;;;;;;0.00;0.00;;;;;;;;;;6152061;23;20012;-58
2022/03/27 00:16:11;;;;;;;0.00;0.00;;;;;;;;;;6151447;23;20006;-59
2022/03/27 00:18:37;;;;;;;0.00;0.00;;;;;;;;;;6151261;23;20025;-59
2022/03/27 00:21:03;;;;;;;0.00;0.00;;;;;;;;;;6151847;23;20005;-60
2022/03/27 00:23:28;;;;;;;0.00;0.00;;;;;;;;;;6150847;23;20085;-58
2022/03/27 00:25:53;;;;;;;0.00;0.00;;;;;;;;;;6151491;23;19994;-61
2022/03/27 00:28:19;;;;;;;0.00;0.00;;;;;;;;;;6151418;23;20015;-60
2022/03/27 00:30:44;;;;;;;0.00;0.00;;;;;;;;;;6150777;23;20089;-61
2022/03/27 00:33:09;;;;;;;0.00;0.00;;;;;;;;;;6151970;23;20001;-60
2022/03/27 00:35:34;;;;;;;0.00;0.00;;;;;;;;;;6150750;23;19998;-60
2022/03/27 00:37:59;;;;;;;0.00;0.00;;;;;;;;;;6151821;23;20399;-60
2022/03/27 00:40:25;;;;;;;0.00;0.00;;;;;;;;;;6151202;23;20305;-61
2022/03/27 00:42:50;;;;;;;0.00;0.00;;;;;;;;;;6151321;23;20005;-59
2022/03/27 00:45:15;;;;;;;10.38;9.63;;;;;;;;;;6125382;23;19997;-59
2022/03/27 00:47:40;;;;;;;0.00;0.00;;;;;;;;;;6150953;23;20390;-59
2022/03/27 00:50:06;;;;;;;0.00;0.00;;;;;;;;;;6151133;23;20002;-58
2022/03/27 00:52:31;;;;;;;0.00;0.00;;;;;;;;;;6150192;23;20104;-59
2022/03/27 00:54:57;;;;;;;0.00;0.00;;;;;;;;;;6151263;23;20001;-60
2022/03/27 00:57:22;;;;;;;0.00;0.00;;;;;;;;;;6151131;23;19993;-59
2022/03/27 00:59:47;;;;;;;0.00;0.00;;;;;;;;;;6151550;23;20048;-59
2022/03/27 01:02:13;;;;;;;0.00;0.00;;;;;;;;;;6151723;23;20412;-58
2022/03/27 01:04:41;;;;;;;0.00;0.00;;;;;;;;;;6150533;23;20077;-59
2022/03/27 01:07:06;;;;;;;2.10;1.17;;;;;;;;;;6151236;23;20001;-59
2022/03/27 01:09:40;;;;;;;0.00;0.00;;;;;;;;;;6150901;23;19994;-58
2022/03/27 01:12:13;;;;;;;0.00;0.00;;;;;;;;;;6151397;23;19998;-59
2022/03/27 01:14:38;;;;;;;0.00;0.00;;;;;;;;;;6150733;23;19997;-59
2022/03/27 01:17:08;;;;;;;0.00;0.00;;;;;;;;;;6151732;23;20015;-59
2022/03/27 01:19:33;;;;;;;0.00;0.00;;;;;;;;;;6150619;23;20072;-58
2022/03/27 01:22:00;;;;;;;0.20;0.20;;;;;;;;;;6124920;23;20367;-58
2022/03/27 01:24:25;;;;;;;0.00;0.00;;;;;;;;;;6150612;23;20002;-59
2022/03/27 01:26:50;;;;;;;0.35;0.35;;;;;;;;;;6151176;23;20137;-58
2022/03/27 01:29:16;;;;;;;0.00;0.00;;;;;;;;;;6150696;23;20358;-60
2022/03/27 01:31:42;;;;;;;2.22;2.13;;;;;;;;;;6150976;23;20005;-60
2022/03/27 01:34:07;;;;;;;1.25;1.25;;;;;;;;;;6150658;23;20065;-60
2022/03/27 01:36:36;;;;;;;0.00;0.00;;;;;;;;;;6150804;23;20424;-59
2022/03/27 01:39:09;;;;;;;0.10;0.10;;;;;;;;;;6151030;23;20005;-60
2022/03/27 01:41:34;;;;;;;0.00;0.00;;;;;;;;;;6150675;23;20004;-58
2022/03/27 01:44:00;;;;;;;0.00;0.00;;;;;;;;;;6150962;23;20414;-59
2022/03/27 01:46:29;;;;;;;0.00;0.00;;;;;;;;;;6150194;23;20066;-59
2022/03/27 01:48:54;;;;;;;0.00;0.00;;;;;;;;;;6150922;23;20001;-60
2022/03/27 01:51:19;;;;;;;0.00;0.00;;;;;;;;;;6150237;23;20001;-59
2022/03/27 01:53:44;;;;;;;0.00;0.00;;;;;;;;;;6150993;23;20100;-60
2022/03/27 01:56:10;;;;;;;0.00;0.00;;;;;;;;;;6151528;23;20067;-58
2022/03/27 01:58:38;;;;;;;0.00;0.00;;;;;;;;;;6150717;23;20009;-57
2022/03/27 02:01:05;;;;;;;0.00;0.00;;;;;;;;;;6150978;23;20013;-58
2022/03/27 02:03:30;;;;;;;0.00;0.00;;;;;;;;;;6124583;23;20056;-57
2022/03/27 02:05:55;;;;;;;0.00;0.00;;;;;;;;;;6151153;23;20400;-60
2022/03/27 02:08:21;;;;;;;0.00;0.00;;;;;;;;;;6151338;23;20009;-60
2022/03/27 02:10:47;;;;;;;0.10;0.10;;;;;;;;;;6150834;23;20069;-58
2022/03/27 02:13:13;;;;;;;0.15;0.15;;;;;;;;;;6151248;23;20079;-59
2022/03/27 02:15:38;;;;;;;0.00;0.00;;;;;;;;;;6150432;23;20001;-58
2022/03/27 02:18:04;;;;;;;0.00;0.00;;;;;;;;;;6151353;23;20020;-60
2022/03/27 02:20:29;;;;;;;0.00;0.00;;;;;;;;;;6150447;23;20076;-58
2022/03/27 02:22:54;;;;;;;0.00;0.00;;;;;;;;;;6151338;23;20006;-60
2022/03/27 02:25:20;;;;;;;0.52;0.52;;;;;;;;;;6150986;23;20002;-59
2022/03/27 02:27:46;;;;;;;0.00;0.00;;;;;;;;;;6150809;23;20001;-59
2022/03/27 02:30:11;;;;;;;0.25;0.25;;;;;;;;;;6150787;23;20569;-58
2022/03/27 02:32:36;;;;;;;0.00;0.00;;;;;;;;;;6150471;23;20009;-59
2022/03/27 02:35:02;;;;;;;0.00;0.00;;;;;;;;;;6151444;23;20059;-59
2022/03/27 02:37:28;;;;;;;0.00;0.00;;;;;;;;;;6150678;23;20080;-59
2022/03/27 02:39:53;;;;;;;0.00;0.00;;;;;;;;;;6151231;23;20064;-59
2022/03/27 02:42:18;;;;;;;0.00;0.00;;;;;;;;;;6151317;23;19997;-59
2022/03/27 02:44:44;;;;;;;0.00;0.00;;;;;;;;;;6124239;23;20005;-59
2022/03/27 02:47:09;;;;;;;0.00;0.00;;;;;;;;;;6151316;23;20056;-59
2022/03/27 02:49:34;;;;;;;0.00;0.00;;;;;;;;;;6150387;23;19997;-59
2022/03/27 02:51:59;;;;;;;0.00;0.00;;;;;;;;;;6151367;23;20016;-58
2022/03/27 02:54:25;;;;;;;0.00;0.00;;;;;;;;;;6151229;23;20331;-59
2022/03/27 02:56:50;;;;;;;0.00;0.00;;;;;;;;;;6150595;23;20141;-58
2022/03/27 02:59:16;;;;;;;0.00;0.00;;;;;;;;;;6150848;23;20053;-57
2022/03/27 03:01:41;;;;;;;0.00;0.00;;;;;;;;;;6150274;23;20432;-59
2022/03/27 03:04:07;;;;;;;0.00;0.00;;;;;;;;;;6150980;23;20085;-58
2022/03/27 03:06:33;;;;;;;0.00;0.00;;;;;;;;;;6150202;23;20029;-58
2022/03/27 03:08:58;;;;;;;0.00;0.00;;;;;;;;;;6151133;23;19998;-58
2022/03/27 03:11:24;;;;;;;0.30;0.30;;;;;;;;;;6150897;23;20075;-58
2022/03/27 03:13:52;;;;;;;0.00;0.00;;;;;;;;;;6150521;23;20609;-58
2022/03/27 03:16:18;;;;;;;0.00;0.00;;;;;;;;;;6150753;23;20012;-59
2022/03/27 03:18:44;;;;;;;0.00;0.00;;;;;;;;;;6152119;23;20005;-58
2022/03/27 03:21:09;;;;;;;0.00;0.00;;;;;;;;;;6152787;23;20013;-58
2022/03/27 03:23:36;;;;;;;0.00;0.00;;;;;;;;;;6152356;23;20001;-58
2022/03/27 03:26:02;;;;;;;0.40;0.25;;;;;;;;;;6152976;23;20435;-59
2022/03/27 03:28:27;;;;;;;0.00;0.00;;;;;;;;;;6151876;23;20013;-58
2022/03/27 03:30:52;;;;;;;0.00;0.00;;;;;;;;;;6152665;23;20013;-57
2022/03/27 03:33:19;;;;;;;0.00;0.00;;;;;;;;;;6152548;23;20060;-57
2022/03/27 03:35:45;;;;;;;0.00;0.00;;;;;;;;;;6152447;23;19998;-58
2022/03/27 03:38:10;;;;;;;0.00;0.00;;;;;;;;;;6152746;23;20012;-60
2022/03/27 03:40:35;;;;;;;1.55;1.45;;;;;;;;;;6152350;23;20683;-60
2022/03/27 03:43:01;;;;;;;0.00;0.00;;;;;;;;;;6152489;23;20428;-59
2022/03/27 03:45:26;;;;;;;0.00;0.00;;;;;;;;;;6151940;23;20332;-59
2022/03/27 03:47:51;;;;;;;0.15;0.15;;;;;;;;;;6151982;23;19998;-59
2022/03/27 03:50:16;;;;;;;0.00;0.00;;;;;;;;;;6152850;23;19994;-60
2022/03/27 03:52:42;;;;;;;0.10;0.10;;;;;;;;;;6151260;23;20005;-58
2022/03/27 03:55:07;;;;;;;0.00;0.00;;;;;;;;;;6152832;23;20024;-60
2022/03/27 03:57:32;;;;;;;0.00;0.00;;;;;;;;;;6152103;23;20005;-62
2022/03/27 03:59:58;;;;;;;0.00;0.00;;;;;;;;;;6152857;23;20020;-59
2022/03/27 04:02:23;;;;;;;0.22;0.22;;;;;;;;;;6152555;23;20013;-57
2022/03/27 04:04:48;;;;;;;0.00;0.00;;;;;;;;;;6152007;23;20009;-57
2022/03/27 04:07:14;;;;;;;0.25;0.25;;;;;;;;;;6152260;23;20005;-58
2022/03/27 04:09:39;;;;;;;0.30;0.30;;;;;;;;;;6152082;23;19994;-58
2022/03/27 04:12:05;;;;;;;0.00;0.00;;;;;;;;;;6152551;23;20401;-58
2022/03/27 04:14:34;;;;;;;0.00;0.00;;;;;;;;;;6151466;23;19997;-58
2022/03/27 04:17:00;;;;;;;0.00;0.00;;;;;;;;;;6152361;23;20009;-56
2022/03/27 04:19:25;;;;;;;0.00;0.00;;;;;;;;;;6152546;23;20475;-59
2022/03/27 04:21:50;;;;;;;7.07;6.78;;;;;;;;;;6151567;23;20044;-59
2022/03/27 04:24:16;;;;;;;1.42;1.42;;;;;;;;;;6152288;23;20008;-59
2022/03/27 04:26:41;;;;;;;0.00;0.00;;;;;;;;;;6151699;23;19997;-59
2022/03/27 04:29:06;;;;;;;0.00;0.00;;;;;;;;;;6151979;23;20447;-55
2022/03/27 04:31:31;;;;;;;0.00;0.00;;;;;;;;;;6151273;23;20005;-54
2022/03/27 04:33:57;;;;;;;0.00;0.00;;;;;;;;;;6152562;23;20006;-56
2022/03/27 04:36:22;;;;;;;0.00;0.00;;;;;;;;;;6152441;23;20344;-54
2022/03/27 04:38:48;;;;;;;0.00;0.00;;;;;;;;;;6151973;23;20017;-57
2022/03/27 04:41:13;;;;;;;0.00;0.00;;;;;;;;;;6152225;23;20044;-59
2022/03/27 04:43:38;;;;;;;0.00;0.00;;;;;;;;;;6151137;23;20005;-58
2022/03/27 04:46:04;;;;;;;0.00;0.00;;;;;;;;;;6151531;23;20001;-59
2022/03/27 04:48:29;;;;;;;0.00;0.00;;;;;;;;;;6152125;23;20404;-59
2022/03/27 04:50:54;;;;;;;0.00;0.00;;;;;;;;;;6151718;23;19993;-58
2022/03/27 04:53:20;;;;;;;0.35;0.35;;;;;;;;;;6152030;23;20002;-59
2022/03/27 04:55:45;;;;;;;0.00;0.00;;;;;;;;;;6151672;23;19998;-59
2022/03/27 04:58:10;;;;;;;0.00;0.00;;;;;;;;;;6152223;23;20068;-60
2022/03/27 05:00:36;;;;;;;0.00;0.00;;;;;;;;;;6151628;23;20435;-60
2022/03/27 05:03:01;;;;;;;3.97;3.78;;;;;;;;;;6151673;23;20009;-59
2022/03/27 05:05:26;;;;;;;0.00;0.00;;;;;;;;;;6152112;23;20002;-59
2022/03/27 05:07:53;;;;;;;0.00;0.00;;;;;;;;;;6151068;23;20047;-59
2022/03/27 05:10:19;;;;;;;0.00;0.00;;;;;;;;;;6152108;23;19993;-59
2022/03/27 05:12:45;;;;;;;0.00;0.00;;;;;;;;;;6150650;23;19998;-60
2022/03/27 05:15:11;;;;;;;0.00;0.00;;;;;;;;;;6151607;23;20068;-59
2022/03/27 05:18:02;;;;;;;0.25;0.25;;;;;;;;;;6151605;23;20039;-59
2022/03/27 05:20:32;;;;;;;0.00;0.00;;;;;;;;;;6146208;23;20001;-60
2022/03/27 05:22:59;;;;;;;0.22;0.22;;;;;;;;;;6151730;23;20065;-59
2022/03/27 05:25:25;;;;;;;0.00;0.00;;;;;;;;;;6152083;23;20002;-59
2022/03/27 05:27:53;;;;;;;0.00;0.00;;;;;;;;;;6151082;23;20001;-60
2022/03/27 05:30:19;;;;;;;0.00;0.00;;;;;;;;;;6151320;23;20439;-59
2022/03/27 05:32:45;;;;;;;0.00;0.00;;;;;;;;;;6151303;23;20116;-60
2022/03/27 05:35:10;;;;;;;0.00;0.00;;;;;;;;;;6151560;23;20016;-59
2022/03/27 05:37:39;;;;;;;0.00;0.00;;;;;;;;;;6151138;23;20008;-59
2022/03/27 05:40:06;;;;;;;0.00;0.00;;;;;;;;;;6151476;23;20072;-59
2022/03/27 05:42:31;;;;;;;0.00;0.00;;;;;;;;;;6151037;23;20320;-57
2022/03/27 05:44:56;;;;;;;0.00;0.00;;;;;;;;;;6150768;23;20005;-58
2022/03/27 05:47:21;;;;;;;0.45;0.45;;;;;;;;;;6151784;23;20751;-58
2022/03/27 05:49:47;;;;;;;0.90;0.80;;;;;;;;;;6150784;23;20025;-59
2022/03/27 05:52:14;;;;;;;0.00;0.00;;;;;;;;;;6151134;23;20029;-60
2022/03/27 05:54:40;;;;;;;0.00;0.00;;;;;;;;;;6150431;23;20023;-61
2022/03/27 05:57:05;;;;;;;0.00;0.00;;;;;;;;;;6150872;23;20769;-60
2022/03/27 05:59:30;;;;;;;0.00;0.00;;;;;;;;;;6151315;23;20028;-59
2022/03/27 06:01:55;;;;;;;0.00;0.00;;;;;;;;;;6149978;23;20402;-58
2022/03/27 06:04:20;;;;;;;1.55;1.55;;;;;;;;;;6151107;23;20002;-57
2022/03/27 06:06:46;;;;;;;0.00;0.00;;;;;;;;;;6150549;23;20005;-59
2022/03/27 06:09:11;;;;;;;0.05;0.05;;;;;;;;;;6150581;23;20407;-59
2022/03/27 06:11:36;;;;;;;2.70;0.70;;;;;;;;;;6150343;23;19997;-61
2022/03/27 06:14:01;;;;;;;0.00;0.00;;;;;;;;;;6150939;23;20094;-59
2022/03/27 06:16:26;;;;;;;0.98;0.30;;;;;;;;;;6150613;23;20001;-59
2022/03/27 06:18:52;;;;;;;0.00;0.00;;;;;;;;;;6150459;23;20037;-60
2022/03/27 06:21:17;;;;;;;0.20;0.20;;;;;;;;;;6150747;23;20088;-60
2022/03/27 06:23:42;;;;;;;0.00;0.00;;;;;;;;;;6150096;23;20068;-59
2022/03/27 06:26:07;;;;;;;0.00;0.00;;;;;;;;;;6150280;23;20072;-59
2022/03/27 06:28:33;;;;;;;0.40;0.40;;;;;;;;;;6150593;23;20044;-59
2022/03/27 06:30:58;;;;;;;0.00;0.00;;;;;;;;;;6149882;23;20029;-59
2022/03/27 06:33:23;;;;;;;0.00;0.00;;;;;;;;;;6150645;23;20420;-59
2022/03/27 06:35:48;;;;;;;8.75;8.32;;;;;;;;;;6150045;23;20384;-59
2022/03/27 06:38:14;;;;;;;0.80;0.80;;;;;;;;;;6150144;23;20432;-60
2022/03/27 06:40:39;;;;;;;0.00;0.00;;;;;;;;;;6149975;23;20029;-59
2022/03/27 06:43:05;;;;;;;0.00;0.00;;;;;;;;;;6149650;23;20010;-59
2022/03/27 06:45:31;;;;;;;0.00;0.00;;;;;;;;;;6149175;23;19997;-63
2022/03/27 06:47:56;;;;;;;2.63;2.53;;;;;;;;;;6148917;23;20005;-62
2022/03/27 06:50:22;;;;;;;0.00;0.00;;;;;;;;;;6149579;23;20005;-59
2022/03/27 06:52:48;;;;;;;0.00;0.00;;;;;;;;;;6150851;23;20001;-59
2022/03/27 06:55:13;;;;;;;0.00;0.00;;;;;;;;;;6151275;23;20002;-61
2022/03/27 06:57:39;;;;;;;0.20;0.20;;;;;;;;;;6151504;23;20073;-62
2022/03/27 07:03:09;;;;;;;0.00;0.00;;;;;;;;;;6151769;23;20401;-63
2022/03/27 07:05:42;;;;;;;0.00;0.00;;;;;;;;;;6152177;23;20093;-63
2022/03/27 07:08:09;;;;;;;0.10;0.10;;;;;;;;;;6149004;23;19998;-63
2022/03/27 07:10:36;;;;;;;0.00;0.00;;;;;;;;;;6147707;23;20006;-62
2022/03/27 07:13:01;;;;;;;0.55;0.55;;;;;;;;;;6151627;23;20017;-63
2022/03/27 07:15:26;;;;;;;0.00;0.00;;;;;;;;;;6151166;23;20438;-63
2022/03/27 07:17:53;;;;;;;0.30;0.30;;;;;;;;;;6151319;23;19997;-63
2022/03/27 07:20:20;;;;;;;0.00;0.00;;;;;;;;;;6152129;23;19998;-64
2022/03/27 07:22:45;;;;;;;0.00;0.00;;;;;;;;;;6151401;23;20009;-63
2022/03/27 07:25:10;;;;;;;0.10;0.10;;;;;;;;;;6125413;23;20104;-63
2022/03/27 07:27:37;;;;;;;0.75;0.75;;;;;;;;;;6148521;23;20017;-63
2022/03/27 07:30:02;;;;;;;0.75;0.32;;;;;;;;;;6147133;23;20088;-63
2022/03/27 07:32:28;;;;;;;0.30;0.17;;;;;;;;;;6151533;23;20029;-63
2022/03/27 07:34:53;;;;;;;10.38;1.17;;;;;;;;;;6150451;23;20072;-62
2022/03/27 07:37:18;;;;;;;2.20;2.10;;;;;;;;;;6150744;23;20013;-63
2022/03/27 07:39:44;;;;;;;4.20;1.90;;;;;;;;;;6150670;23;20240;-63
2022/03/27 07:42:09;;;;;;;1.58;1.48;;;;;;;;;;6150780;23;19998;-63
2022/03/27 07:44:34;;;;;;;1.02;1.02;;;;;;;;;;6150994;23;20004;-64
2022/03/27 07:46:59;;;;;;;0.00;0.00;;;;;;;;;;6150407;23;20128;-63
2022/03/27 07:49:25;;;;;;;2.00;1.25;;;;;;;;;;6151215;23;20001;-63
2022/03/27 07:51:51;;;;;;;0.00;0.00;;;;;;;;;;6150097;23;20710;-63
2022/03/27 07:54:16;;;;;;;1.58;0.82;;;;;;;;;;6148022;23;20005;-63
2022/03/27 07:56:41;;;;;;;2.40;1.63;;;;;;;;;;6150662;23;20036;-64
2022/03/27 07:59:06;;;;;;;2.78;2.63;;;;;;;;;;6150031;23;20009;-63
2022/03/27 08:01:31;;;;;;;0.40;0.40;;;;;;;;;;6150401;23;20801;-64
2022/03/27 08:03:58;;;;;;;2.05;1.95;;;;;;;;;;6150255;23;20008;-63
2022/03/27 08:06:24;;;;;;;2.75;2.55;;;;;;;;;;6150883;23;20006;-64
2022/03/27 08:08:49;;;;;;;2.53;2.33;;;;;;;;;;6150780;23;19997;-64
2022/03/27 08:11:15;;;;;;;0.25;0.25;;;;;;;;;;6151170;23;20299;-63
2022/03/27 08:13:40;;;;;;;0.32;0.13;;;;;;;;;;6150000;23;19993;-63
2022/03/27 08:16:05;;;;;;;0.57;0.57;;;;;;;;;;6124358;23;20489;-62
2022/03/27 08:18:32;;;;;;;6.60;2.05;;;;;;;;;;6151059;23;20037;-63
2022/03/27 08:20:57;;;;;;;0.00;0.00;;;;;;;;;;6149720;23;20033;-63
2022/03/27 08:23:22;;;;;;;4.38;1.08;;;;;;;;;;6150896;23;20447;-63
2022/03/27 08:28:31;;;;;;;0.32;0.32;;;;;;;;;;6150044;23;20395;-63
2022/03/27 08:30:57;;;;;;;0.22;0.22;;;;;;;;;;6149362;23;20001;-63
2022/03/27 08:33:22;;;;;;;2.00;1.98;;;;;;;;;;6150024;23;20005;-64
2022/03/27 08:35:47;;;;;;;1.98;1.95;;;;;;;;;;6150367;23;20005;-64
2022/03/27 08:38:15;;;;;;;0.00;0.00;;;;;;;;;;6151391;23;20026;-65
2022/03/27 08:40:41;;;;;;;0.90;0.77;;;;;;;;;;6149068;23;20032;-58
2022/03/27 08:43:08;;;;;;;0.10;0.10;;;;;;;;;;6150519;23;20418;-58
2022/03/27 08:45:34;;;;;;;0.95;0.55;;;;;;;;;;6149800;23;20504;-59
2022/03/27 08:47:59;;;;;;;0.35;0.35;;;;;;;;;;6149384;23;20101;-58
2022/03/27 08:50:43;;;;;;;0.00;0.00;;;;;;;;;;6149045;23;20434;-59
2022/03/27 08:53:11;;;;;;;0.77;0.77;;;;;;;;;;6150762;23;20002;-59
2022/03/27 08:55:39;;;;;;;0.00;0.00;;;;;;;;;;6124600;23;20127;-59
2022/03/27 08:58:06;;;;;;;0.00;0.00;;;;;;;;;;6150756;23;20424;-59
2022/03/27 09:00:33;;;;;;;1.27;1.27;;;;;;;;;;6123393;23;20005;-68
2022/03/27 09:03:00;;;;;;;0.40;0.40;;;;;;;;;;6150532;23;20005;-58
2022/03/27 09:05:26;;;;;;;0.00;0.00;;;;;;;;;;6151024;23;20004;-58
2022/03/27 09:07:53;;;;;;;0.00;0.00;;;;;;;;;;6150533;23;20002;-59
2022/03/27 09:10:19;;;;;;;0.25;0.25;;;;;;;;;;6150780;23;20407;-59
2022/03/27 09:12:45;;;;;;;0.00;0.00;;;;;;;;;;6124628;23;20005;-58
2022/03/27 09:15:11;;;;;;;0.00;0.00;;;;;;;;;;6150611;23;20048;-60
2022/03/27 09:17:55;;;;;;;0.10;0.10;;;;;;;;;;6150989;23;20005;-59
2022/03/27 09:20:29;;;;;;;0.00;0.00;;;;;;;;;;6150806;23;20008;-59
2022/03/27 09:22:55;;;;;;;0.00;0.00;;;;;;;;;;6150470;23;20005;-59
2022/03/27 09:25:20;;;;;;;0.00;0.00;;;;;;;;;;6151035;23;20017;-59
2022/03/27 09:27:45;;;;;;;0.00;0.00;;;;;;;;;;6150220;23;20020;-58
2022/03/27 09:30:11;;;;;;;2.80;2.60;;;;;;;;;;6150885;23;20052;-58
2022/03/27 09:32:41;;;;;;;0.28;0.28;;;;;;;;;;6124079;23;20001;-59
2022/03/27 09:35:17;;;;;;;0.20;0.20;;;;;;;;;;6124314;23;20044;-59
2022/03/27 09:37:45;;;;;;;0.10;0.10;;;;;;;;;;6150262;23;20327;-59
2022/03/27 09:40:12;;;;;;;0.00;0.00;;;;;;;;;;6151399;23;20029;-59
2022/03/27 09:42:39;;;;;;;0.15;0.15;;;;;;;;;;6150859;23;20595;-60
2022/03/27 09:45:17;;;;;;;0.00;0.00;;;;;;;;;;6150933;23;20005;-60
2022/03/27 09:47:47;;;;;;;1.02;0.73;;;;;;;;;;6150264;23;20004;-61
2022/03/27 09:50:32;;;;;;;1.00;1.00;;;;;;;;;;6150629;23;20021;-59
2022/03/27 09:53:16;;;;;;;0.00;0.00;;;;;;;;;;6150776;23;19993;-59
2022/03/27 09:55:41;;;;;;;0.85;0.85;;;;;;;;;;6124688;23;19994;-59
2022/03/27 09:58:09;;;;;;;0.08;0.08;;;;;;;;;;6151242;23;20311;-60
2022/03/27 10:00:34;;;;;;;0.00;0.00;;;;;;;;;;6150402;23;20081;-60
2022/03/27 10:03:08;;;;;;;0.00;0.00;;;;;;;;;;6150083;23;20129;-59
2022/03/27 10:05:34;;;;;;;0.00;0.00;;;;;;;;;;6150577;23;20089;-59
2022/03/27 10:07:59;;;;;;;1.40;1.40;;;;;;;;;;6150776;23;20025;-59
2022/03/27 10:10:26;;;;;;;0.50;0.35;;;;;;;;;;6151138;23;19998;-58
2022/03/27 10:12:52;;;;;;;1.92;0.85;;;;;;;;;;6150890;23;20022;-58
2022/03/27 10:15:18;;;;;;;3.30;2.75;;;;;;;;;;6151265;23;19997;-58
2022/03/27 10:17:46;;;;;;;5.35;5.07;;;;;;;;;;6150126;23;20002;-59
2022/03/27 10:20:16;;;;;;;1.02;0.93;;;;;;;;;;6151087;23;20052;-59
2022/03/27 10:22:41;;;;;;;;;;;;;;;;;;6150495;23;20005;-59
2022/03/27 10:25:08;;;;;;;0.00;0.00;;;;;;;;;;6150775;23;19904;-59
2022/03/27 10:27:34;;;;;;;0.00;0.00;;;;;;;;;;6151018;23;20423;-59
2022/03/27 10:29:59;;;;;;;0.00;0.00;;;;;;;;;;6149538;23;20013;-59
2022/03/27 10:32:25;;;;;;;0.00;0.00;;;;;;;;;;6150432;23;20447;-59
2022/03/27 10:34:57;;;;;;;0.00;0.00;;;;;;;;;;6150399;23;20012;-59
2022/03/27 10:37:31;;;;;;;1.02;1.02;;;;;;;;;;6148513;23;20056;-59
2022/03/27 10:39:59;;;;;;;3.17;2.97;;;;;;;;;;6147181;23;20010;-59
2022/03/27 10:42:32;;;;;;;1.20;1.17;;;;;;;;;;6150852;23;20001;-60
2022/03/27 10:45:18;;;;;;;1.30;1.20;;;;;;;;;;6150265;23;20092;-59
2022/03/27 10:47:43;;;;;;;1.65;1.13;;;;;;;;;;6148748;23;20005;-59
2022/03/27 10:50:08;;;;;;;0.00;0.00;;;;;;;;;;6150832;23;19997;-59
2022/03/27 10:52:36;;;;;;;0.00;0.00;;;;;;;;;;6150754;23;20332;-59
2022/03/27 10:55:07;;;;;;;0.00;0.00;;;;;;;;;;6150531;23;20060;-59
2022/03/27 10:57:37;;;;;;;0.00;0.00;;;;;;;;;;6150572;23;20087;-59
2022/03/27 11:00:07;;;;;;;0.00;0.00;;;;;;;;;;6150820;23;20005;-58
2022/03/27 11:02:46;;;;;;;0.00;0.00;;;;;;;;;;6150465;23;20118;-59
2022/03/27 11:05:29;;;;;;;0.00;0.00;;;;;;;;;;6150813;23;20001;-60
2022/03/27 11:08:13;;;;;;;0.35;0.30;;;;;;;;;;6150355;23;20007;-60
2022/03/27 11:10:39;;;;;;;1.45;1.45;;;;;;;;;;6150870;23;20057;-60
2022/03/27 11:13:22;;;;;;;4.25;3.13;;;;;;;;;;6150437;23;19997;-60
2022/03/27 11:16:07;;;;;;;0.00;0.00;;;;;;;;;;6149873;23;20036;-60
2022/03/27 11:18:40;;;;;;;0.38;0.38;;;;;;;;;;6151047;23;20002;-59
2022/03/27 11:21:06;;;;;;;0.00;0.00;;;;;;;;;;6150170;23;20009;-58
2022/03/27 11:23:33;;;;;;;0.40;0.40;;;;;;;;;;6150911;23;20016;-58
2022/03/27 11:25:59;;;;;;;0.08;0.08;;;;;;;;;;6150239;23;20442;-59
2022/03/27 11:28:26;;;;;;;5.78;1.85;;;;;;;;;;6150049;23;20016;-60
2022/03/27 11:30:52;;;;;;;1.60;1.50;;;;;;;;;;6150070;23;20442;-60
2022/03/27 11:33:21;;;;;;;2.85;2.65;;;;;;;;;;6151092;23;19997;-60
2022/03/27 11:35:46;;;;;;;;;;;;;;;;;;6124916;23;20025;-59
2022/03/27 11:38:25;;;;;;;0.47;0.47;;;;;;;;;;6151959;23;19967;-59
2022/03/27 11:40:50;;;;;;;4.72;4.40;;;;;;;;;;6152400;23;20410;-57
2022/03/27 11:43:29;;;;;;;0.00;0.00;;;;;;;;;;6152352;23;20101;-59
2022/03/27 11:45:55;;;;;;;0.22;0.20;;;;;;;;;;6151708;23;20080;-58
2022/03/27 11:48:20;;;;;;;2.83;2.63;;;;;;;;;;6153081;23;20036;-59
2022/03/27 11:50:45;;;;;;;2.05;0.95;;;;;;;;;;6151948;23;20342;-59
2022/03/27 11:53:11;;;;;;;0.52;0.35;;;;;;;;;;6152172;23;20002;-58
2022/03/27 11:55:37;;;;;;;0.00;0.00;;;;;;;;;;6152096;23;20002;-59
2022/03/27 11:58:03;;;;;;;0.00;0.00;;;;;;;;;;6151081;23;20064;-60
2022/03/27 12:00:32;;;;;;;1.52;0.57;;;;;;;;;;6151541;23;20002;-58
2022/03/27 12:02:58;;;;;;;0.00;0.00;;;;;;;;;;6151287;23;20170;-59
2022/03/27 12:05:31;;;;;;;0.68;0.68;;;;;;;;;;6151382;23;20029;-58
2022/03/27 12:07:56;;;;;;;0.00;0.00;;;;;;;;;;6151246;23;20079;-60
2022/03/27 12:10:22;;;;;;;0.00;0.00;;;;;;;;;;6151616;23;20001;-59
2022/03/27 12:12:57;;;;;;;1.70;1.65;;;;;;;;;;6150274;23;19998;-59
2022/03/27 12:15:23;;;;;;;0.00;0.00;;;;;;;;;;6150354;23;20001;-59
2022/03/27 12:17:48;;;;;;;1.67;1.58;;;;;;;;;;6148826;23;20002;-61
2022/03/27 12:20:15;;;;;;;0.47;0.47;;;;;;;;;;6143273;23;20311;-59
2022/03/27 12:22:44;;;;;;;0.95;0.95;;;;;;;;;;6144859;23;20384;-60
2022/03/27 12:25:20;;;;;;;1.13;0.38;;;;;;;;;;6144227;23;20284;-59
2022/03/27 12:30:33;;;;;;;0.88;0.88;;;;;;;;;;6151583;23;20379;-59
2022/03/27 12:33:00;;;;;;;3.30;3.10;;;;;;;;;;6151203;23;20423;-59
2022/03/27 12:35:27;;;;;;;0.30;0.30;;;;;;;;;;6151596;23;19998;-59
2022/03/27 12:37:53;;;;;;;1.75;1.65;;;;;;;;;;6150779;23;20331;-59
2022/03/27 12:40:18;;;;;;;0.63;0.63;;;;;;;;;;6150493;23;20001;-59
2022/03/27 12:42:46;;;;;;;1.00;0.93;;;;;;;;;;6150432;23;20002;-59
2022/03/27 12:45:23;;;;;;;0.00;0.00;;;;;;;;;;6124230;23;20777;-59
2022/03/27 12:47:54;;;;;;;0.05;0.05;;;;;;;;;;6150152;23;20068;-59
2022/03/27 12:50:25;;;;;;;0.60;0.60;;;;;;;;;;6151434;23;20072;-60
2022/03/27 12:52:54;;;;;;;0.00;0.00;;;;;;;;;;6150330;23;19998;-59
2022/03/27 12:55:20;;;;;;;0.63;0.63;;;;;;;;;;6151515;23;20073;-59
2022/03/27 12:57:59;;;;;;;3.97;3.42;;;;;;;;;;6150822;23;20047;-59
2022/03/27 13:00:28;;;;;;;3.60;3.20;;;;;;;;;;6151548;23;20013;-60
2022/03/27 13:03:12;;;;;;;7.47;2.47;;;;;;;;;;6151412;23;20245;-59
2022/03/27 13:05:39;;;;;;;0.00;0.00;;;;;;;;;;6150936;23;20080;-59
2022/03/27 13:08:04;;;;;;;2.00;1.20;;;;;;;;;;6151044;23;20461;-59
2022/03/27 13:10:29;;;;;;;3.80;2.80;;;;;;;;;;6151780;23;20643;-58
2022/03/27 13:12:58;;;;;;;4.78;1.58;;;;;;;;;;6150460;23;20087;-59
2022/03/27 13:15:42;;;;;;;0.65;0.65;;;;;;;;;;6151503;23;20005;-60
2022/03/27 13:18:09;;;;;;;0.00;0.00;;;;;;;;;;6150697;23;20002;-59
2022/03/27 13:20:35;;;;;;;0.00;0.00;;;;;;;;;;6151045;23;20009;-58
2022/03/27 13:23:01;;;;;;;0.65;0.65;;;;;;;;;;6150110;23;20312;-58
2022/03/27 13:25:27;;;;;;;0.00;0.00;;;;;;;;;;6151156;23;20005;-59
2022/03/27 13:27:53;;;;;;;0.00;0.00;;;;;;;;;;6149265;23;20662;-60
2022/03/27 13:30:19;;;;;;;0.32;0.32;;;;;;;;;;6146834;23;20103;-60
2022/03/27 13:32:44;;;;;;;2.55;2.35;;;;;;;;;;6146370;23;20009;-62
2022/03/27 13:35:09;;;;;;;0.00;0.00;;;;;;;;;;6149822;23;20107;-59
2022/03/27 13:37:34;;;;;;;0.00;0.00;;;;;;;;;;6150998;23;20012;-60
2022/03/27 13:39:59;;;;;;;0.00;0.00;;;;;;;;;;6150441;23;20024;-60
2022/03/27 13:45:08;;;;;;;1.83;1.60;;;;;;;;;;6150380;23;20016;-60
2022/03/27 13:47:34;;;;;;;1.23;1.17;;;;;;;;;;6150283;23;20005;-60
2022/03/27 13:49:59;;;;;;;0.32;0.32;;;;;;;;;;6150061;23;20590;-60
2022/03/27 13:52:24;;;;;;;2.47;0.43;;;;;;;;;;6150529;23;20518;-60
2022/03/27 13:54:49;;;;;;;4.07;1.75;;;;;;;;;;6149940;23;20002;-60
2022/03/27 13:57:14;;;;;;;0.00;0.00;;;;;;;;;;6150690;23;20028;-59
2022/03/27 13:59:40;;;;;;;3.45;2.33;;;;;;;;;;6151006;23;20005;-58
2022/03/27 14:02:07;;;;;;;1.40;0.80;;;;;;;;;;6124012;23;20016;-59
2022/03/27 14:04:32;;;;;;;0.10;0.10;;;;;;;;;;6150574;23;20002;-58
2022/03/27 14:06:58;;;;;;;0.00;0.00;;;;;;;;;;6124253;23;20461;-59
2022/03/27 14:09:23;;;;;;;1.63;1.48;;;;;;;;;;6150844;23;20009;-58
2022/03/27 14:11:49;;;;;;;0.43;0.43;;;;;;;;;;6146722;23;20028;-60
2022/03/27 14:14:14;;;;;;;3.30;1.80;;;;;;;;;;6149974;23;20319;-59
2022/03/27 14:16:41;;;;;;;2.72;1.35;;;;;;;;;;6151080;23;20002;-58
2022/03/27 14:19:07;;;;;;;0.20;0.20;;;;;;;;;;6146868;23;20689;-59
2022/03/27 14:21:33;;;;;;;1.55;1.50;;;;;;;;;;6149809;23;20004;-58
2022/03/27 14:23:58;;;;;;;2.38;1.08;;;;;;;;;;6149566;23;20434;-60
2022/03/27 14:26:23;;;;;;;0.20;0.20;;;;;;;;;;6151043;23;20541;-60
2022/03/27 14:28:49;;;;;;;0.00;0.00;;;;;;;;;;6149653;23;20017;-59
2022/03/27 14:31:14;;;;;;;0.00;0.00;;;;;;;;;;6149458;23;20511;-59
2022/03/27 14:33:40;;;;;;;0.87;0.73;;;;;;;;;;6149617;23;20024;-59
2022/03/27 14:36:05;;;;;;;1.67;1.58;;;;;;;;;;6149952;23;20308;-60
2022/03/27 14:38:31;;;;;;;1.92;1.83;;;;;;;;;;6150976;23;20008;-59
2022/03/27 14:40:58;;;;;;;0.43;0.43;;;;;;;;;;6149200;23;20001;-59
2022/03/27 14:43:23;;;;;;;0.55;0.55;;;;;;;;;;6149614;23;20002;-60
2022/03/27 14:45:53;;;;;;;0.08;0.08;;;;;;;;;;6149040;23;20001;-60
2022/03/27 14:48:18;;;;;;;2.63;2.53;;;;;;;;;;6150061;23;20052;-59
2022/03/27 14:50:44;;;;;;;2.33;1.15;;;;;;;;;;6150448;23;20077;-59
2022/03/27 14:53:10;;;;;;;0.80;0.75;;;;;;;;;;6123466;23;20330;-59
2022/03/27 14:58:19;;;;;;;1.58;1.48;;;;;;;;;;6150056;23;20013;-59